sensor_id;sensor_type;location;lat;lon;timestamp;temperature;humidity
56268;DHT22;42175;46.930;9.532;2023-08-08T00:01:07;21.80;56.80
56268;DHT22;42175;46.930;9.532;2023-08-08T00:03:34;21.80;56.80
56268;DHT22;42175;46.930;9.532;2023-08-08T00:06:00;21.80;56.80
56268;DHT22;42175;46.930;9.532;2023-08-08T00:08:25;21.80;56.70
56268;DHT22;42175;46.930;9.532;2023-08-08T00:10:51;21.80;56.60
56268;DHT22;42175;46.930;9.532;2023-08-08T00:13:17;21.80;56.60
56268;DHT22;42175;46.930;9.532;2023-08-08T00:15:43;21.80;56.50
56268;DHT22;42175;46.930;9.532;2023-08-08T00:18:09;21.80;56.50
56268;DHT22;42175;46.930;9.532;2023-08-08T00:20:34;21.80;56.50
56268;DHT22;42175;46.930;9.532;2023-08-08T00:23:00;21.80;56.40
56268;DHT22;42175;46.930;9.532;2023-08-08T00:25:26;21.80;56.40
56268;DHT22;42175;46.930;9.532;2023-08-08T00:27:52;21.80;56.20
56268;DHT22;42175;46.930;9.532;2023-08-08T00:30:18;21.80;56.30
56268;DHT22;42175;46.930;9.532;2023-08-08T00:32:43;21.80;56.40
56268;DHT22;42175;46.930;9.532;2023-08-08T00:35:09;21.80;56.40
56268;DHT22;42175;46.930;9.532;2023-08-08T00:37:35;21.80;56.40
56268;DHT22;42175;46.930;9.532;2023-08-08T00:40:01;21.80;56.30
56268;DHT22;42175;46.930;9.532;2023-08-08T00:42:26;21.80;56.30
56268;DHT22;42175;46.930;9.532;2023-08-08T00:44:52;21.80;56.30
56268;DHT22;42175;46.930;9.532;2023-08-08T00:47:18;21.80;56.30
56268;DHT22;42175;46.930;9.532;2023-08-08T00:49:45;21.80;56.30
56268;DHT22;42175;46.930;9.532;2023-08-08T00:52:12;21.80;56.30
56268;DHT22;42175;46.930;9.532;2023-08-08T00:54:38;21.80;56.30
56268;DHT22;42175;46.930;9.532;2023-08-08T00:57:05;21.80;56.20
56268;DHT22;42175;46.930;9.532;2023-08-08T00:59:31;21.80;56.20
56268;DHT22;42175;46.930;9.532;2023-08-08T01:01:58;21.80;56.20
56268;DHT22;42175;46.930;9.532;2023-08-08T01:04:26;21.80;56.20
56268;DHT22;42175;46.930;9.532;2023-08-08T01:07:06;21.80;56.20
56268;DHT22;42175;46.930;9.532;2023-08-08T01:09:37;21.80;56.20
56268;DHT22;42175;46.930;9.532;2023-08-08T01:12:06;21.80;56.10
56268;DHT22;42175;46.930;9.532;2023-08-08T01:14:34;21.80;56.10
56268;DHT22;42175;46.930;9.532;2023-08-08T01:17:02;21.80;56.20
56268;DHT22;42175;46.930;9.532;2023-08-08T01:19:31;21.80;56.10
56268;DHT22;42175;46.930;9.532;2023-08-08T01:22:02;21.80;56.10
56268;DHT22;42175;46.930;9.532;2023-08-08T01:24:28;21.80;56.10
56268;DHT22;42175;46.930;9.532;2023-08-08T01:27:01;21.80;56.20
56268;DHT22;42175;46.930;9.532;2023-08-08T01:29:27;21.80;56.10
56268;DHT22;42175;46.930;9.532;2023-08-08T01:31:53;21.80;56.10
56268;DHT22;42175;46.930;9.532;2023-08-08T01:34:19;21.80;56.10
56268;DHT22;42175;46.930;9.532;2023-08-08T01:36:55;21.80;56.10
56268;DHT22;42175;46.930;9.532;2023-08-08T01:39:25;21.80;56.20
56268;DHT22;42175;46.930;9.532;2023-08-08T01:41:53;21.80;56.10
56268;DHT22;42175;46.930;9.532;2023-08-08T01:44:20;21.80;56.10
56268;DHT22;42175;46.930;9.532;2023-08-08T01:46:46;21.80;56.20
56268;DHT22;42175;46.930;9.532;2023-08-08T01:49:12;21.80;56.20
56268;DHT22;42175;46.930;9.532;2023-08-08T01:51:38;21.80;56.20
56268;DHT22;42175;46.930;9.532;2023-08-08T01:54:04;21.80;56.20
56268;DHT22;42175;46.930;9.532;2023-08-08T01:56:30;21.80;56.30
56268;DHT22;42175;46.930;9.532;2023-08-08T01:58:55;21.80;56.30
56268;DHT22;42175;46.930;9.532;2023-08-08T02:01:22;21.80;56.20
56268;DHT22;42175;46.930;9.532;2023-08-08T02:03:47;21.80;56.20
56268;DHT22;42175;46.930;9.532;2023-08-08T02:06:13;21.80;56.20
56268;DHT22;42175;46.930;9.532;2023-08-08T02:08:39;21.80;56.20
56268;DHT22;42175;46.930;9.532;2023-08-08T02:11:05;21.80;56.20
56268;DHT22;42175;46.930;9.532;2023-08-08T02:13:31;21.80;56.20
56268;DHT22;42175;46.930;9.532;2023-08-08T02:15:56;21.80;56.20
56268;DHT22;42175;46.930;9.532;2023-08-08T02:18:22;21.80;56.10
56268;DHT22;42175;46.930;9.532;2023-08-08T02:20:48;21.70;56.10
56268;DHT22;42175;46.930;9.532;2023-08-08T02:23:14;21.80;56.10
56268;DHT22;42175;46.930;9.532;2023-08-08T02:25:39;21.80;56.10
56268;DHT22;42175;46.930;9.532;2023-08-08T02:28:05;21.80;56.00
56268;DHT22;42175;46.930;9.532;2023-08-08T02:30:31;21.70;56.00
56268;DHT22;42175;46.930;9.532;2023-08-08T02:32:57;21.80;56.00
56268;DHT22;42175;46.930;9.532;2023-08-08T02:35:23;21.80;56.10
56268;DHT22;42175;46.930;9.532;2023-08-08T02:37:48;21.80;56.00
56268;DHT22;42175;46.930;9.532;2023-08-08T02:40:14;21.80;56.00
56268;DHT22;42175;46.930;9.532;2023-08-08T02:42:40;21.80;56.10
56268;DHT22;42175;46.930;9.532;2023-08-08T02:45:06;21.80;56.10
56268;DHT22;42175;46.930;9.532;2023-08-08T02:47:32;21.80;56.10
56268;DHT22;42175;46.930;9.532;2023-08-08T02:49:58;21.70;56.00
56268;DHT22;42175;46.930;9.532;2023-08-08T02:52:24;21.70;56.00
56268;DHT22;42175;46.930;9.532;2023-08-08T02:54:49;21.80;56.10
56268;DHT22;42175;46.930;9.532;2023-08-08T02:57:16;21.80;56.10
56268;DHT22;42175;46.930;9.532;2023-08-08T02:59:42;21.70;56.00
56268;DHT22;42175;46.930;9.532;2023-08-08T03:02:07;21.80;56.10
56268;DHT22;42175;46.930;9.532;2023-08-08T03:04:33;21.80;56.00
56268;DHT22;42175;46.930;9.532;2023-08-08T03:06:59;21.80;56.10
56268;DHT22;42175;46.930;9.532;2023-08-08T03:09:29;21.80;56.00
56268;DHT22;42175;46.930;9.532;2023-08-08T03:11:55;21.80;56.00
56268;DHT22;42175;46.930;9.532;2023-08-08T03:14:21;21.80;56.00
56268;DHT22;42175;46.930;9.532;2023-08-08T03:16:47;21.80;56.00
56268;DHT22;42175;46.930;9.532;2023-08-08T03:19:12;21.80;56.00
56268;DHT22;42175;46.930;9.532;2023-08-08T03:21:38;21.80;56.00
56268;DHT22;42175;46.930;9.532;2023-08-08T03:24:04;21.80;56.00
56268;DHT22;42175;46.930;9.532;2023-08-08T03:26:30;21.80;56.00
56268;DHT22;42175;46.930;9.532;2023-08-08T03:28:56;21.70;55.90
56268;DHT22;42175;46.930;9.532;2023-08-08T03:31:22;21.70;56.00
56268;DHT22;42175;46.930;9.532;2023-08-08T03:33:48;21.80;56.00
56268;DHT22;42175;46.930;9.532;2023-08-08T03:36:14;21.70;56.00
56268;DHT22;42175;46.930;9.532;2023-08-08T03:38:40;21.80;56.10
56268;DHT22;42175;46.930;9.532;2023-08-08T03:41:10;21.70;56.00
56268;DHT22;42175;46.930;9.532;2023-08-08T03:43:35;21.70;56.00
56268;DHT22;42175;46.930;9.532;2023-08-08T03:46:01;21.70;56.00
56268;DHT22;42175;46.930;9.532;2023-08-08T03:48:27;21.70;56.00
56268;DHT22;42175;46.930;9.532;2023-08-08T03:50:52;21.70;56.00
56268;DHT22;42175;46.930;9.532;2023-08-08T03:53:18;21.70;56.00
56268;DHT22;42175;46.930;9.532;2023-08-08T03:55:44;21.70;56.00
56268;DHT22;42175;46.930;9.532;2023-08-08T03:58:10;21.70;56.00
56268;DHT22;42175;46.930;9.532;2023-08-08T04:00:36;21.70;56.00
56268;DHT22;42175;46.930;9.532;2023-08-08T04:03:03;21.70;56.00
56268;DHT22;42175;46.930;9.532;2023-08-08T04:05:29;21.70;56.00
56268;DHT22;42175;46.930;9.532;2023-08-08T04:07:54;21.70;56.00
56268;DHT22;42175;46.930;9.532;2023-08-08T04:10:20;21.70;56.00
56268;DHT22;42175;46.930;9.532;2023-08-08T04:12:46;21.70;56.00
56268;DHT22;42175;46.930;9.532;2023-08-08T04:15:11;21.70;56.00
56268;DHT22;42175;46.930;9.532;2023-08-08T04:17:37;21.70;56.00
56268;DHT22;42175;46.930;9.532;2023-08-08T04:20:03;21.70;56.00
56268;DHT22;42175;46.930;9.532;2023-08-08T04:22:31;21.70;56.00
56268;DHT22;42175;46.930;9.532;2023-08-08T04:24:56;21.70;56.00
56268;DHT22;42175;46.930;9.532;2023-08-08T04:27:22;21.70;56.00
56268;DHT22;42175;46.930;9.532;2023-08-08T04:29:48;21.70;56.00
56268;DHT22;42175;46.930;9.532;2023-08-08T04:32:14;21.70;56.60
56268;DHT22;42175;46.930;9.532;2023-08-08T04:34:40;21.70;55.90
56268;DHT22;42175;46.930;9.532;2023-08-08T04:37:05;21.70;56.00
56268;DHT22;42175;46.930;9.532;2023-08-08T04:39:31;21.70;55.90
56268;DHT22;42175;46.930;9.532;2023-08-08T04:41:57;21.70;56.00
56268;DHT22;42175;46.930;9.532;2023-08-08T04:44:23;21.70;55.90
56268;DHT22;42175;46.930;9.532;2023-08-08T04:46:48;21.70;55.90
56268;DHT22;42175;46.930;9.532;2023-08-08T04:49:14;21.70;55.90
56268;DHT22;42175;46.930;9.532;2023-08-08T04:51:40;21.70;56.50
56268;DHT22;42175;46.930;9.532;2023-08-08T04:54:06;21.70;55.90
56268;DHT22;42175;46.930;9.532;2023-08-08T04:56:31;21.70;55.90
56268;DHT22;42175;46.930;9.532;2023-08-08T04:58:57;21.70;55.90
56268;DHT22;42175;46.930;9.532;2023-08-08T05:01:23;21.70;55.80
56268;DHT22;42175;46.930;9.532;2023-08-08T05:03:49;21.70;55.80
56268;DHT22;42175;46.930;9.532;2023-08-08T05:06:15;21.70;55.90
56268;DHT22;42175;46.930;9.532;2023-08-08T05:08:41;21.70;55.80
56268;DHT22;42175;46.930;9.532;2023-08-08T05:11:07;21.70;55.80
56268;DHT22;42175;46.930;9.532;2023-08-08T05:13:33;21.70;55.80
56268;DHT22;42175;46.930;9.532;2023-08-08T05:15:58;21.70;55.80
56268;DHT22;42175;46.930;9.532;2023-08-08T05:18:24;21.70;55.80
56268;DHT22;42175;46.930;9.532;2023-08-08T05:20:50;21.70;55.80
56268;DHT22;42175;46.930;9.532;2023-08-08T05:23:16;21.70;55.80
56268;DHT22;42175;46.930;9.532;2023-08-08T05:25:42;21.70;55.70
56268;DHT22;42175;46.930;9.532;2023-08-08T05:28:08;21.70;55.70
56268;DHT22;42175;46.930;9.532;2023-08-08T05:30:33;21.70;55.70
56268;DHT22;42175;46.930;9.532;2023-08-08T05:33:00;21.70;55.70
56268;DHT22;42175;46.930;9.532;2023-08-08T05:35:25;21.70;55.70
56268;DHT22;42175;46.930;9.532;2023-08-08T05:37:51;21.70;55.60
56268;DHT22;42175;46.930;9.532;2023-08-08T05:40:17;21.70;55.60
56268;DHT22;42175;46.930;9.532;2023-08-08T05:42:42;21.70;55.40
56268;DHT22;42175;46.930;9.532;2023-08-08T05:45:08;21.70;55.20
56268;DHT22;42175;46.930;9.532;2023-08-08T05:47:34;21.70;55.00
56268;DHT22;42175;46.930;9.532;2023-08-08T05:49:59;21.70;54.80
56268;DHT22;42175;46.930;9.532;2023-08-08T05:52:25;21.60;54.40
56268;DHT22;42175;46.930;9.532;2023-08-08T05:54:51;21.70;54.40
56268;DHT22;42175;46.930;9.532;2023-08-08T05:57:16;21.70;54.60
56268;DHT22;42175;46.930;9.532;2023-08-08T05:59:42;21.70;54.50
56268;DHT22;42175;46.930;9.532;2023-08-08T06:02:10;21.70;54.40
56268;DHT22;42175;46.930;9.532;2023-08-08T06:04:36;21.70;54.00
56268;DHT22;42175;46.930;9.532;2023-08-08T06:07:02;21.60;53.70
56268;DHT22;42175;46.930;9.532;2023-08-08T06:09:28;21.70;53.50
56268;DHT22;42175;46.930;9.532;2023-08-08T06:11:53;21.60;53.20
56268;DHT22;42175;46.930;9.532;2023-08-08T06:14:19;21.60;53.00
56268;DHT22;42175;46.930;9.532;2023-08-08T06:16:45;21.60;53.00
56268;DHT22;42175;46.930;9.532;2023-08-08T06:19:12;21.60;52.80
56268;DHT22;42175;46.930;9.532;2023-08-08T06:21:40;21.60;53.00
56268;DHT22;42175;46.930;9.532;2023-08-08T06:24:06;21.60;53.00
56268;DHT22;42175;46.930;9.532;2023-08-08T06:26:32;21.70;53.20
56268;DHT22;42175;46.930;9.532;2023-08-08T06:28:57;21.70;53.40
56268;DHT22;42175;46.930;9.532;2023-08-08T06:31:23;21.60;53.20
56268;DHT22;42175;46.930;9.532;2023-08-08T06:33:49;21.60;53.10
56268;DHT22;42175;46.930;9.532;2023-08-08T06:36:15;21.70;53.10
56268;DHT22;42175;46.930;9.532;2023-08-08T06:38:40;21.60;53.00
56268;DHT22;42175;46.930;9.532;2023-08-08T06:41:06;21.70;52.90
56268;DHT22;42175;46.930;9.532;2023-08-08T06:43:32;21.60;52.70
56268;DHT22;42175;46.930;9.532;2023-08-08T06:45:57;21.60;52.60
56268;DHT22;42175;46.930;9.532;2023-08-08T06:48:23;21.60;52.70
56268;DHT22;42175;46.930;9.532;2023-08-08T06:50:49;21.60;52.70
56268;DHT22;42175;46.930;9.532;2023-08-08T06:53:15;21.60;52.80
56268;DHT22;42175;46.930;9.532;2023-08-08T06:55:41;21.60;53.20
56268;DHT22;42175;46.930;9.532;2023-08-08T06:58:06;21.60;53.20
56268;DHT22;42175;46.930;9.532;2023-08-08T07:00:32;21.60;53.20
56268;DHT22;42175;46.930;9.532;2023-08-08T07:02:58;21.60;53.40
56268;DHT22;42175;46.930;9.532;2023-08-08T07:05:23;21.60;53.40
56268;DHT22;42175;46.930;9.532;2023-08-08T07:07:52;21.60;53.40
56268;DHT22;42175;46.930;9.532;2023-08-08T07:10:19;21.60;53.40
56268;DHT22;42175;46.930;9.532;2023-08-08T07:12:45;21.70;53.50
56268;DHT22;42175;46.930;9.532;2023-08-08T07:15:11;21.70;53.70
56268;DHT22;42175;46.930;9.532;2023-08-08T07:17:37;21.60;53.00
56268;DHT22;42175;46.930;9.532;2023-08-08T07:20:03;21.60;53.30
56268;DHT22;42175;46.930;9.532;2023-08-08T07:22:31;21.60;53.50
56268;DHT22;42175;46.930;9.532;2023-08-08T07:24:57;21.70;53.70
56268;DHT22;42175;46.930;9.532;2023-08-08T07:27:23;21.70;53.50
56268;DHT22;42175;46.930;9.532;2023-08-08T07:29:49;21.70;53.80
56268;DHT22;42175;46.930;9.532;2023-08-08T07:32:15;21.70;53.50
56268;DHT22;42175;46.930;9.532;2023-08-08T07:34:41;21.70;53.50
56268;DHT22;42175;46.930;9.532;2023-08-08T07:37:06;21.70;53.60
56268;DHT22;42175;46.930;9.532;2023-08-08T07:39:32;21.70;54.00
56268;DHT22;42175;46.930;9.532;2023-08-08T07:41:58;21.70;54.20
56268;DHT22;42175;46.930;9.532;2023-08-08T07:44:24;21.70;54.40
56268;DHT22;42175;46.930;9.532;2023-08-08T07:46:49;21.70;54.40
56268;DHT22;42175;46.930;9.532;2023-08-08T07:49:15;21.70;54.50
56268;DHT22;42175;46.930;9.532;2023-08-08T07:51:41;21.70;55.10
56268;DHT22;42175;46.930;9.532;2023-08-08T07:54:07;21.70;54.60
56268;DHT22;42175;46.930;9.532;2023-08-08T07:56:35;21.70;54.60
56268;DHT22;42175;46.930;9.532;2023-08-08T07:59:01;21.70;54.60
56268;DHT22;42175;46.930;9.532;2023-08-08T08:01:28;21.70;54.70
56268;DHT22;42175;46.930;9.532;2023-08-08T08:03:53;21.70;54.70
56268;DHT22;42175;46.930;9.532;2023-08-08T08:06:19;21.70;54.80
56268;DHT22;42175;46.930;9.532;2023-08-08T08:08:45;21.70;54.80
56268;DHT22;42175;46.930;9.532;2023-08-08T08:11:11;21.70;55.00
56268;DHT22;42175;46.930;9.532;2023-08-08T08:13:39;21.70;55.00
56268;DHT22;42175;46.930;9.532;2023-08-08T08:16:05;21.70;55.10
56268;DHT22;42175;46.930;9.532;2023-08-08T08:18:31;21.70;55.10
56268;DHT22;42175;46.930;9.532;2023-08-08T08:20:57;21.80;55.30
56268;DHT22;42175;46.930;9.532;2023-08-08T08:23:23;21.80;55.20
56268;DHT22;42175;46.930;9.532;2023-08-08T08:25:49;21.90;55.10
56268;DHT22;42175;46.930;9.532;2023-08-08T08:28:16;21.90;55.10
56268;DHT22;42175;46.930;9.532;2023-08-08T08:30:42;21.90;55.10
56268;DHT22;42175;46.930;9.532;2023-08-08T08:33:09;21.90;55.10
56268;DHT22;42175;46.930;9.532;2023-08-08T08:35:35;21.90;55.20
56268;DHT22;42175;46.930;9.532;2023-08-08T08:38:01;21.90;55.30
56268;DHT22;42175;46.930;9.532;2023-08-08T08:40:28;21.90;55.30
56268;DHT22;42175;46.930;9.532;2023-08-08T08:42:55;21.90;55.30
56268;DHT22;42175;46.930;9.532;2023-08-08T08:45:22;21.90;55.30
56268;DHT22;42175;46.930;9.532;2023-08-08T08:47:49;22.00;55.40
56268;DHT22;42175;46.930;9.532;2023-08-08T08:50:18;22.00;55.40
56268;DHT22;42175;46.930;9.532;2023-08-08T08:52:44;21.90;55.30
56268;DHT22;42175;46.930;9.532;2023-08-08T08:55:10;22.00;55.40
56268;DHT22;42175;46.930;9.532;2023-08-08T08:57:36;22.00;55.40
56268;DHT22;42175;46.930;9.532;2023-08-08T09:00:03;22.00;55.40
56268;DHT22;42175;46.930;9.532;2023-08-08T09:02:31;22.00;55.60
56268;DHT22;42175;46.930;9.532;2023-08-08T09:04:58;22.00;55.60
56268;DHT22;42175;46.930;9.532;2023-08-08T09:07:26;22.00;55.70
56268;DHT22;42175;46.930;9.532;2023-08-08T09:09:53;22.00;55.70
56268;DHT22;42175;46.930;9.532;2023-08-08T09:12:19;22.00;55.70
56268;DHT22;42175;46.930;9.532;2023-08-08T09:14:44;22.00;55.80
56268;DHT22;42175;46.930;9.532;2023-08-08T09:17:13;22.00;55.80
56268;DHT22;42175;46.930;9.532;2023-08-08T09:19:43;22.00;55.90
56268;DHT22;42175;46.930;9.532;2023-08-08T09:22:09;22.00;55.80
56268;DHT22;42175;46.930;9.532;2023-08-08T09:24:41;22.00;55.90
56268;DHT22;42175;46.930;9.532;2023-08-08T09:27:08;22.00;56.00
56268;DHT22;42175;46.930;9.532;2023-08-08T09:29:35;22.00;55.90
56268;DHT22;42175;46.930;9.532;2023-08-08T09:32:05;22.00;55.80
56268;DHT22;42175;46.930;9.532;2023-08-08T09:34:31;22.00;55.90
56268;DHT22;42175;46.930;9.532;2023-08-08T09:36:58;22.00;55.90
56268;DHT22;42175;46.930;9.532;2023-08-08T09:39:23;22.00;55.80
56268;DHT22;42175;46.930;9.532;2023-08-08T09:41:50;22.00;55.90
56268;DHT22;42175;46.930;9.532;2023-08-08T09:44:15;22.00;56.00
56268;DHT22;42175;46.930;9.532;2023-08-08T09:46:41;22.00;56.00
56268;DHT22;42175;46.930;9.532;2023-08-08T09:49:10;22.10;56.10
56268;DHT22;42175;46.930;9.532;2023-08-08T09:51:35;22.00;56.10
56268;DHT22;42175;46.930;9.532;2023-08-08T09:54:01;22.00;56.20
56268;DHT22;42175;46.930;9.532;2023-08-08T09:56:30;22.10;56.30
56268;DHT22;42175;46.930;9.532;2023-08-08T09:58:57;22.00;56.30
56268;DHT22;42175;46.930;9.532;2023-08-08T10:01:25;22.00;56.40
56268;DHT22;42175;46.930;9.532;2023-08-08T10:03:51;22.00;56.40
56268;DHT22;42175;46.930;9.532;2023-08-08T10:06:18;22.00;56.50
56268;DHT22;42175;46.930;9.532;2023-08-08T10:08:45;22.00;56.50
56268;DHT22;42175;46.930;9.532;2023-08-08T10:11:11;22.10;56.90
56268;DHT22;42175;46.930;9.532;2023-08-08T10:13:37;22.10;56.50
56268;DHT22;42175;46.930;9.532;2023-08-08T10:16:07;22.10;56.50
56268;DHT22;42175;46.930;9.532;2023-08-08T10:18:34;22.00;56.50
56268;DHT22;42175;46.930;9.532;2023-08-08T10:21:00;22.10;56.70
56268;DHT22;42175;46.930;9.532;2023-08-08T10:23:26;22.10;56.70
56268;DHT22;42175;46.930;9.532;2023-08-08T10:26:01;22.10;56.80
56268;DHT22;42175;46.930;9.532;2023-08-08T10:28:28;22.10;56.80
56268;DHT22;42175;46.930;9.532;2023-08-08T10:31:00;22.10;56.80
56268;DHT22;42175;46.930;9.532;2023-08-08T10:33:39;22.10;57.00
56268;DHT22;42175;46.930;9.532;2023-08-08T10:36:06;22.00;49.60
56268;DHT22;42175;46.930;9.532;2023-08-08T10:38:46;21.90;48.90
56268;DHT22;42175;46.930;9.532;2023-08-08T10:41:20;21.80;48.10
56268;DHT22;42175;46.930;9.532;2023-08-08T10:46:25;21.80;49.60
56268;DHT22;42175;46.930;9.532;2023-08-08T10:48:53;21.80;49.20
56268;DHT22;42175;46.930;9.532;2023-08-08T10:51:18;21.80;48.30
56268;DHT22;42175;46.930;9.532;2023-08-08T10:53:45;21.80;48.90
56268;DHT22;42175;46.930;9.532;2023-08-08T10:56:13;21.70;49.00
56268;DHT22;42175;46.930;9.532;2023-08-08T10:58:41;21.80;48.70
56268;DHT22;42175;46.930;9.532;2023-08-08T11:01:08;21.70;48.30
56268;DHT22;42175;46.930;9.532;2023-08-08T11:03:40;21.70;48.40
56268;DHT22;42175;46.930;9.532;2023-08-08T11:06:09;21.70;48.00
56268;DHT22;42175;46.930;9.532;2023-08-08T11:08:37;21.70;47.00
56268;DHT22;42175;46.930;9.532;2023-08-08T11:11:04;21.70;48.40
56268;DHT22;42175;46.930;9.532;2023-08-08T11:13:31;21.70;47.30
56268;DHT22;42175;46.930;9.532;2023-08-08T11:15:57;21.80;46.20
56268;DHT22;42175;46.930;9.532;2023-08-08T11:18:23;21.80;45.20
56268;DHT22;42175;46.930;9.532;2023-08-08T11:20:49;21.70;45.90
56268;DHT22;42175;46.930;9.532;2023-08-08T11:23:16;21.80;46.20
56268;DHT22;42175;46.930;9.532;2023-08-08T11:25:44;21.80;45.20
56268;DHT22;42175;46.930;9.532;2023-08-08T11:28:11;21.80;44.80
56268;DHT22;42175;46.930;9.532;2023-08-08T11:30:39;21.70;45.20
56268;DHT22;42175;46.930;9.532;2023-08-08T11:33:06;21.80;43.20
56268;DHT22;42175;46.930;9.532;2023-08-08T11:35:32;21.70;43.30
56268;DHT22;42175;46.930;9.532;2023-08-08T11:38:02;21.80;44.40
56268;DHT22;42175;46.930;9.532;2023-08-08T11:40:29;21.80;45.10
56268;DHT22;42175;46.930;9.532;2023-08-08T11:42:56;21.70;43.80
56268;DHT22;42175;46.930;9.532;2023-08-08T11:45:23;21.80;43.50
56268;DHT22;42175;46.930;9.532;2023-08-08T11:47:54;21.80;43.60
56268;DHT22;42175;46.930;9.532;2023-08-08T11:50:21;21.70;43.20
56268;DHT22;42175;46.930;9.532;2023-08-08T11:52:52;21.70;44.90
56268;DHT22;42175;46.930;9.532;2023-08-08T11:55:27;21.90;44.30
56268;DHT22;42175;46.930;9.532;2023-08-08T11:57:54;21.80;44.60
56268;DHT22;42175;46.930;9.532;2023-08-08T12:00:26;21.90;44.40
56268;DHT22;42175;46.930;9.532;2023-08-08T12:02:53;21.90;44.40
56268;DHT22;42175;46.930;9.532;2023-08-08T12:05:21;21.90;45.50
56268;DHT22;42175;46.930;9.532;2023-08-08T12:07:48;21.80;45.10
56268;DHT22;42175;46.930;9.532;2023-08-08T12:10:17;21.80;44.10
56268;DHT22;42175;46.930;9.532;2023-08-08T12:12:52;21.80;45.50
56268;DHT22;42175;46.930;9.532;2023-08-08T12:15:20;21.80;45.70
56268;DHT22;42175;46.930;9.532;2023-08-08T12:17:46;21.80;43.70
56268;DHT22;42175;46.930;9.532;2023-08-08T12:20:11;21.70;43.40
56268;DHT22;42175;46.930;9.532;2023-08-08T12:22:37;21.80;43.90
56268;DHT22;42175;46.930;9.532;2023-08-08T12:25:04;21.80;45.20
56268;DHT22;42175;46.930;9.532;2023-08-08T12:27:30;21.80;46.70
56268;DHT22;42175;46.930;9.532;2023-08-08T12:29:56;21.80;45.50
56268;DHT22;42175;46.930;9.532;2023-08-08T12:32:22;21.80;44.50
56268;DHT22;42175;46.930;9.532;2023-08-08T12:34:49;21.80;44.80
56268;DHT22;42175;46.930;9.532;2023-08-08T12:37:15;21.70;44.20
56268;DHT22;42175;46.930;9.532;2023-08-08T12:39:41;21.70;44.80
56268;DHT22;42175;46.930;9.532;2023-08-08T12:42:07;21.70;44.00
56268;DHT22;42175;46.930;9.532;2023-08-08T12:44:32;21.70;46.00
56268;DHT22;42175;46.930;9.532;2023-08-08T12:46:58;21.70;45.40
56268;DHT22;42175;46.930;9.532;2023-08-08T12:49:24;21.70;44.70
56268;DHT22;42175;46.930;9.532;2023-08-08T12:51:50;21.80;45.30
56268;DHT22;42175;46.930;9.532;2023-08-08T12:54:16;21.80;47.00
56268;DHT22;42175;46.930;9.532;2023-08-08T12:56:42;21.80;47.60
56268;DHT22;42175;46.930;9.532;2023-08-08T12:59:09;21.90;47.90
56268;DHT22;42175;46.930;9.532;2023-08-08T13:01:35;21.90;47.70
56268;DHT22;42175;46.930;9.532;2023-08-08T13:04:00;21.90;48.30
56268;DHT22;42175;46.930;9.532;2023-08-08T13:06:26;21.90;48.40
56268;DHT22;42175;46.930;9.532;2023-08-08T13:08:52;21.90;48.50
56268;DHT22;42175;46.930;9.532;2023-08-08T13:11:18;21.80;46.90
56268;DHT22;42175;46.930;9.532;2023-08-08T13:13:43;21.90;48.50
56268;DHT22;42175;46.930;9.532;2023-08-08T13:16:09;21.90;49.10
56268;DHT22;42175;46.930;9.532;2023-08-08T13:18:36;21.90;47.80
56268;DHT22;42175;46.930;9.532;2023-08-08T13:21:02;21.90;48.30
56268;DHT22;42175;46.930;9.532;2023-08-08T13:23:27;22.00;47.80
56268;DHT22;42175;46.930;9.532;2023-08-08T13:25:54;22.00;48.60
56268;DHT22;42175;46.930;9.532;2023-08-08T13:28:20;22.00;47.90
56268;DHT22;42175;46.930;9.532;2023-08-08T13:30:46;21.90;47.20
56268;DHT22;42175;46.930;9.532;2023-08-08T13:33:11;21.90;47.10
56268;DHT22;42175;46.930;9.532;2023-08-08T13:35:37;21.90;47.30
56268;DHT22;42175;46.930;9.532;2023-08-08T13:38:03;21.90;48.40
56268;DHT22;42175;46.930;9.532;2023-08-08T13:40:28;21.90;48.50
56268;DHT22;42175;46.930;9.532;2023-08-08T13:42:54;21.90;49.00
56268;DHT22;42175;46.930;9.532;2023-08-08T13:45:20;21.90;48.90
56268;DHT22;42175;46.930;9.532;2023-08-08T13:47:48;21.90;49.70
56268;DHT22;42175;46.930;9.532;2023-08-08T13:50:14;21.90;50.00
56268;DHT22;42175;46.930;9.532;2023-08-08T13:52:40;21.80;50.80
56268;DHT22;42175;46.930;9.532;2023-08-08T13:55:07;21.90;50.60
56268;DHT22;42175;46.930;9.532;2023-08-08T13:57:34;21.90;49.70
56268;DHT22;42175;46.930;9.532;2023-08-08T14:00:00;21.90;49.10
56268;DHT22;42175;46.930;9.532;2023-08-08T14:02:26;21.90;49.20
56268;DHT22;42175;46.930;9.532;2023-08-08T14:04:52;21.90;48.40
56268;DHT22;42175;46.930;9.532;2023-08-08T14:07:18;21.90;48.70
56268;DHT22;42175;46.930;9.532;2023-08-08T14:09:44;21.90;49.00
56268;DHT22;42175;46.930;9.532;2023-08-08T14:12:10;21.90;49.40
56268;DHT22;42175;46.930;9.532;2023-08-08T14:14:36;21.90;49.80
56268;DHT22;42175;46.930;9.532;2023-08-08T14:17:01;21.90;50.00
56268;DHT22;42175;46.930;9.532;2023-08-08T14:19:27;21.90;49.10
56268;DHT22;42175;46.930;9.532;2023-08-08T14:21:52;21.90;48.80
56268;DHT22;42175;46.930;9.532;2023-08-08T14:24:18;21.90;49.00
56268;DHT22;42175;46.930;9.532;2023-08-08T14:26:44;21.90;48.90
56268;DHT22;42175;46.930;9.532;2023-08-08T14:29:11;21.90;49.00
56268;DHT22;42175;46.930;9.532;2023-08-08T14:31:36;21.90;49.90
56268;DHT22;42175;46.930;9.532;2023-08-08T14:34:02;21.90;51.00
56268;DHT22;42175;46.930;9.532;2023-08-08T14:36:28;22.00;50.90
56268;DHT22;42175;46.930;9.532;2023-08-08T14:38:54;21.90;52.00
56268;DHT22;42175;46.930;9.532;2023-08-08T14:41:21;21.90;52.60
56268;DHT22;42175;46.930;9.532;2023-08-08T14:43:46;21.90;52.60
56268;DHT22;42175;46.930;9.532;2023-08-08T14:46:12;21.90;51.60
56268;DHT22;42175;46.930;9.532;2023-08-08T14:48:38;21.90;52.20
56268;DHT22;42175;46.930;9.532;2023-08-08T14:51:04;21.90;52.60
56268;DHT22;42175;46.930;9.532;2023-08-08T14:53:30;21.90;53.50
56268;DHT22;42175;46.930;9.532;2023-08-08T14:55:56;21.90;53.70
56268;DHT22;42175;46.930;9.532;2023-08-08T14:58:22;21.90;53.30
56268;DHT22;42175;46.930;9.532;2023-08-08T15:00:47;21.90;53.20
56268;DHT22;42175;46.930;9.532;2023-08-08T15:03:14;21.90;53.80
56268;DHT22;42175;46.930;9.532;2023-08-08T15:05:40;21.80;53.30
56268;DHT22;42175;46.930;9.532;2023-08-08T15:08:07;21.90;53.70
56268;DHT22;42175;46.930;9.532;2023-08-08T15:10:32;21.90;54.30
56268;DHT22;42175;46.930;9.532;2023-08-08T15:13:00;21.90;54.50
56268;DHT22;42175;46.930;9.532;2023-08-08T15:15:25;21.90;55.10
56268;DHT22;42175;46.930;9.532;2023-08-08T15:17:53;21.90;56.50
56268;DHT22;42175;46.930;9.532;2023-08-08T15:20:19;21.90;55.20
56268;DHT22;42175;46.930;9.532;2023-08-08T15:22:45;21.90;55.80
56268;DHT22;42175;46.930;9.532;2023-08-08T15:25:10;21.90;56.90
56268;DHT22;42175;46.930;9.532;2023-08-08T15:27:36;21.90;56.30